sensor_id;sensor_type;location;lat;lon;timestamp;temperature;humidity
1592;DHT22;789;51.612;7.510;2023-08-06T00:02:23;17.00;1.00
1592;DHT22;789;51.612;7.510;2023-08-06T00:04:51;16.90;1.00
1592;DHT22;789;51.612;7.510;2023-08-06T00:07:18;17.00;1.00
1592;DHT22;789;51.612;7.510;2023-08-06T00:09:47;17.00;1.00
1592;DHT22;789;51.612;7.510;2023-08-06T00:12:13;17.00;1.00
1592;DHT22;789;51.612;7.510;2023-08-06T00:14:44;17.00;1.00
1592;DHT22;789;51.612;7.510;2023-08-06T00:17:11;17.00;1.00
1592;DHT22;789;51.612;7.510;2023-08-06T00:19:39;17.30;1.00
1592;DHT22;789;51.612;7.510;2023-08-06T00:22:06;17.00;1.00
1592;DHT22;789;51.612;7.510;2023-08-06T00:24:33;17.30;1.00
1592;DHT22;789;51.612;7.510;2023-08-06T00:27:00;17.00;1.00
1592;DHT22;789;51.612;7.510;2023-08-06T00:29:28;17.00;1.00
1592;DHT22;789;51.612;7.510;2023-08-06T00:31:55;17.00;1.00
1592;DHT22;789;51.612;7.510;2023-08-06T00:34:22;17.10;1.00
1592;DHT22;789;51.612;7.510;2023-08-06T00:36:50;17.00;1.00
1592;DHT22;789;51.612;7.510;2023-08-06T00:39:19;17.00;1.00
1592;DHT22;789;51.612;7.510;2023-08-06T00:41:45;17.00;1.00
1592;DHT22;789;51.612;7.510;2023-08-06T00:44:12;17.00;1.00
1592;DHT22;789;51.612;7.510;2023-08-06T00:46:39;16.90;1.00
1592;DHT22;789;51.612;7.510;2023-08-06T00:49:06;17.00;1.00
1592;DHT22;789;51.612;7.510;2023-08-06T00:51:34;16.90;1.00
1592;DHT22;789;51.612;7.510;2023-08-06T00:54:03;17.00;1.00
1592;DHT22;789;51.612;7.510;2023-08-06T00:56:30;17.00;1.00
1592;DHT22;789;51.612;7.510;2023-08-06T00:58:56;17.30;1.00
1592;DHT22;789;51.612;7.510;2023-08-06T01:01:26;17.00;1.00
1592;DHT22;789;51.612;7.510;2023-08-06T01:03:54;17.20;1.00
1592;DHT22;789;51.612;7.510;2023-08-06T01:06:32;17.10;1.00
1592;DHT22;789;51.612;7.510;2023-08-06T01:09:08;17.10;1.00
1592;DHT22;789;51.612;7.510;2023-08-06T01:11:43;17.10;1.00
1592;DHT22;789;51.612;7.510;2023-08-06T01:14:17;17.40;1.00
1592;DHT22;789;51.612;7.510;2023-08-06T01:16:46;17.00;1.00
1592;DHT22;789;51.612;7.510;2023-08-06T01:19:17;17.10;1.00
1592;DHT22;789;51.612;7.510;2023-08-06T01:21:45;17.10;1.00
1592;DHT22;789;51.612;7.510;2023-08-06T01:24:12;17.10;1.00
1592;DHT22;789;51.612;7.510;2023-08-06T01:26:43;17.40;1.00
1592;DHT22;789;51.612;7.510;2023-08-06T01:29:15;17.20;1.00
1592;DHT22;789;51.612;7.510;2023-08-06T01:31:48;17.20;1.00
1592;DHT22;789;51.612;7.510;2023-08-06T01:34:17;17.40;1.00
1592;DHT22;789;51.612;7.510;2023-08-06T01:36:49;17.30;1.00
1592;DHT22;789;51.612;7.510;2023-08-06T01:39:16;17.30;1.00
1592;DHT22;789;51.612;7.510;2023-08-06T01:41:46;17.40;1.00
1592;DHT22;789;51.612;7.510;2023-08-06T01:44:13;17.30;1.00
1592;DHT22;789;51.612;7.510;2023-08-06T01:46:40;17.30;1.00
1592;DHT22;789;51.612;7.510;2023-08-06T01:49:07;17.20;1.00
1592;DHT22;789;51.612;7.510;2023-08-06T01:51:34;17.20;1.00
1592;DHT22;789;51.612;7.510;2023-08-06T01:54:02;17.30;1.00
1592;DHT22;789;51.612;7.510;2023-08-06T01:56:29;17.30;1.00
1592;DHT22;789;51.612;7.510;2023-08-06T01:58:56;17.20;1.00
1592;DHT22;789;51.612;7.510;2023-08-06T02:01:23;17.20;1.00
1592;DHT22;789;51.612;7.510;2023-08-06T02:03:50;17.20;1.00
1592;DHT22;789;51.612;7.510;2023-08-06T02:06:16;17.60;1.00
1592;DHT22;789;51.612;7.510;2023-08-06T02:08:43;17.50;1.00
1592;DHT22;789;51.612;7.510;2023-08-06T02:11:11;17.40;1.00
1592;DHT22;789;51.612;7.510;2023-08-06T02:13:38;17.30;1.00
1592;DHT22;789;51.612;7.510;2023-08-06T02:16:06;17.50;1.00
1592;DHT22;789;51.612;7.510;2023-08-06T02:18:34;17.20;1.00
1592;DHT22;789;51.612;7.510;2023-08-06T02:21:01;17.20;1.00
1592;DHT22;789;51.612;7.510;2023-08-06T02:23:28;17.30;1.00
1592;DHT22;789;51.612;7.510;2023-08-06T02:25:59;17.20;1.00
1592;DHT22;789;51.612;7.510;2023-08-06T02:28:28;17.20;1.00
1592;DHT22;789;51.612;7.510;2023-08-06T02:30:58;17.20;1.00
1592;DHT22;789;51.612;7.510;2023-08-06T02:33:28;17.40;1.00
1592;DHT22;789;51.612;7.510;2023-08-06T02:36:01;17.20;1.00
1592;DHT22;789;51.612;7.510;2023-08-06T02:38:29;17.10;1.00
1592;DHT22;789;51.612;7.510;2023-08-06T02:40:57;17.10;1.00
1592;DHT22;789;51.612;7.510;2023-08-06T02:43:24;17.20;1.00
1592;DHT22;789;51.612;7.510;2023-08-06T02:45:52;17.30;1.00
1592;DHT22;789;51.612;7.510;2023-08-06T02:48:19;17.10;1.00
1592;DHT22;789;51.612;7.510;2023-08-06T02:50:45;17.00;1.00
1592;DHT22;789;51.612;7.510;2023-08-06T02:53:12;16.70;1.00
1592;DHT22;789;51.612;7.510;2023-08-06T02:55:45;17.00;1.00
1592;DHT22;789;51.612;7.510;2023-08-06T02:58:13;17.00;1.00
1592;DHT22;789;51.612;7.510;2023-08-06T03:00:40;17.00;1.00
1592;DHT22;789;51.612;7.510;2023-08-06T03:03:09;16.90;1.00
1592;DHT22;789;51.612;7.510;2023-08-06T03:05:36;17.10;1.00
1592;DHT22;789;51.612;7.510;2023-08-06T03:08:03;17.20;1.00
1592;DHT22;789;51.612;7.510;2023-08-06T03:10:30;17.10;1.00
1592;DHT22;789;51.612;7.510;2023-08-06T03:12:57;17.40;1.00
1592;DHT22;789;51.612;7.510;2023-08-06T03:15:23;17.40;1.00
1592;DHT22;789;51.612;7.510;2023-08-06T03:17:55;17.40;1.00
1592;DHT22;789;51.612;7.510;2023-08-06T03:20:25;17.40;1.00
1592;DHT22;789;51.612;7.510;2023-08-06T03:22:52;17.40;1.00
1592;DHT22;789;51.612;7.510;2023-08-06T03:25:18;17.20;1.00
1592;DHT22;789;51.612;7.510;2023-08-06T03:27:45;17.20;1.00
1592;DHT22;789;51.612;7.510;2023-08-06T03:30:12;17.40;1.00
1592;DHT22;789;51.612;7.510;2023-08-06T03:32:39;17.20;1.00
1592;DHT22;789;51.612;7.510;2023-08-06T03:35:06;17.20;1.00
1592;DHT22;789;51.612;7.510;2023-08-06T03:37:35;17.20;1.00
1592;DHT22;789;51.612;7.510;2023-08-06T03:40:03;17.20;1.00
1592;DHT22;789;51.612;7.510;2023-08-06T03:42:29;17.10;1.00
1592;DHT22;789;51.612;7.510;2023-08-06T03:44:57;17.10;1.00
1592;DHT22;789;51.612;7.510;2023-08-06T03:47:24;17.00;1.00
1592;DHT22;789;51.612;7.510;2023-08-06T03:49:51;17.00;1.00
1592;DHT22;789;51.612;7.510;2023-08-06T03:52:18;16.90;1.00
1592;DHT22;789;51.612;7.510;2023-08-06T03:54:46;16.90;1.00
1592;DHT22;789;51.612;7.510;2023-08-06T03:57:13;16.90;1.00
1592;DHT22;789;51.612;7.510;2023-08-06T03:59:40;16.80;1.00
1592;DHT22;789;51.612;7.510;2023-08-06T04:02:07;16.80;1.00
1592;DHT22;789;51.612;7.510;2023-08-06T04:04:35;16.80;1.00
1592;DHT22;789;51.612;7.510;2023-08-06T04:07:01;16.70;1.00
1592;DHT22;789;51.612;7.510;2023-08-06T04:09:28;16.70;1.00
1592;DHT22;789;51.612;7.510;2023-08-06T04:11:57;16.70;1.00
1592;DHT22;789;51.612;7.510;2023-08-06T04:14:26;16.70;1.00
1592;DHT22;789;51.612;7.510;2023-08-06T04:16:53;16.60;1.00
1592;DHT22;789;51.612;7.510;2023-08-06T04:19:22;16.60;1.00
1592;DHT22;789;51.612;7.510;2023-08-06T04:21:50;16.70;1.00
1592;DHT22;789;51.612;7.510;2023-08-06T04:24:17;16.60;1.00
1592;DHT22;789;51.612;7.510;2023-08-06T04:26:44;17.10;1.00
1592;DHT22;789;51.612;7.510;2023-08-06T04:29:12;16.90;1.00
1592;DHT22;789;51.612;7.510;2023-08-06T04:31:39;16.70;1.00
1592;DHT22;789;51.612;7.510;2023-08-06T04:34:06;16.70;1.00
1592;DHT22;789;51.612;7.510;2023-08-06T04:36:33;16.70;1.00
1592;DHT22;789;51.612;7.510;2023-08-06T04:39:00;16.80;1.00
1592;DHT22;789;51.612;7.510;2023-08-06T04:41:27;16.80;1.00
1592;DHT22;789;51.612;7.510;2023-08-06T04:43:56;16.80;1.00
1592;DHT22;789;51.612;7.510;2023-08-06T04:46:25;16.90;1.00
1592;DHT22;789;51.612;7.510;2023-08-06T04:48:51;17.00;1.00
1592;DHT22;789;51.612;7.510;2023-08-06T04:51:18;17.10;1.00
1592;DHT22;789;51.612;7.510;2023-08-06T04:53:45;17.00;1.00
1592;DHT22;789;51.612;7.510;2023-08-06T04:56:12;17.10;1.00
1592;DHT22;789;51.612;7.510;2023-08-06T04:58:39;17.10;1.00
1592;DHT22;789;51.612;7.510;2023-08-06T05:01:05;17.30;1.00
1592;DHT22;789;51.612;7.510;2023-08-06T05:03:34;17.20;1.00
1592;DHT22;789;51.612;7.510;2023-08-06T05:06:00;17.30;1.00
1592;DHT22;789;51.612;7.510;2023-08-06T05:08:27;17.20;1.00
1592;DHT22;789;51.612;7.510;2023-08-06T05:10:55;17.20;1.00
1592;DHT22;789;51.612;7.510;2023-08-06T05:13:22;17.20;1.00
1592;DHT22;789;51.612;7.510;2023-08-06T05:15:50;17.10;1.00
1592;DHT22;789;51.612;7.510;2023-08-06T05:18:17;17.10;1.00
1592;DHT22;789;51.612;7.510;2023-08-06T05:20:45;17.20;1.00
1592;DHT22;789;51.612;7.510;2023-08-06T05:23:12;17.20;1.00
1592;DHT22;789;51.612;7.510;2023-08-06T05:25:39;17.20;1.00
1592;DHT22;789;51.612;7.510;2023-08-06T05:28:06;17.20;1.00
1592;DHT22;789;51.612;7.510;2023-08-06T05:30:33;17.20;1.00
1592;DHT22;789;51.612;7.510;2023-08-06T05:33:05;17.30;1.00
1592;DHT22;789;51.612;7.510;2023-08-06T05:35:32;17.60;1.00
1592;DHT22;789;51.612;7.510;2023-08-06T05:38:00;17.60;1.00
1592;DHT22;789;51.612;7.510;2023-08-06T05:40:27;17.70;1.00
1592;DHT22;789;51.612;7.510;2023-08-06T05:42:54;17.50;1.00
1592;DHT22;789;51.612;7.510;2023-08-06T05:45:21;17.70;1.00
1592;DHT22;789;51.612;7.510;2023-08-06T05:47:48;17.90;1.00
1592;DHT22;789;51.612;7.510;2023-08-06T05:50:15;18.10;1.00
1592;DHT22;789;51.612;7.510;2023-08-06T05:52:41;18.40;1.00
1592;DHT22;789;51.612;7.510;2023-08-06T05:55:10;18.60;1.00
1592;DHT22;789;51.612;7.510;2023-08-06T05:57:36;18.80;1.00
1592;DHT22;789;51.612;7.510;2023-08-06T06:00:04;18.80;1.00
1592;DHT22;789;51.612;7.510;2023-08-06T06:02:32;18.90;1.00
1592;DHT22;789;51.612;7.510;2023-08-06T06:04:58;18.90;1.00
1592;DHT22;789;51.612;7.510;2023-08-06T06:07:25;18.90;1.00
1592;DHT22;789;51.612;7.510;2023-08-06T06:09:52;18.90;1.00
1592;DHT22;789;51.612;7.510;2023-08-06T06:12:20;18.90;1.00
1592;DHT22;789;51.612;7.510;2023-08-06T06:14:47;18.90;1.00
1592;DHT22;789;51.612;7.510;2023-08-06T06:17:17;18.90;1.00
1592;DHT22;789;51.612;7.510;2023-08-06T06:19:44;18.90;1.00
1592;DHT22;789;51.612;7.510;2023-08-06T06:22:11;18.90;1.00
1592;DHT22;789;51.612;7.510;2023-08-06T06:24:38;19.10;1.00
1592;DHT22;789;51.612;7.510;2023-08-06T06:27:05;19.10;1.00
1592;DHT22;789;51.612;7.510;2023-08-06T06:29:33;19.20;1.00
1592;DHT22;789;51.612;7.510;2023-08-06T06:32:00;19.30;1.00
1592;DHT22;789;51.612;7.510;2023-08-06T06:34:26;19.30;1.00
1592;DHT22;789;51.612;7.510;2023-08-06T06:36:53;19.50;1.00
1592;DHT22;789;51.612;7.510;2023-08-06T06:39:21;19.60;1.00
1592;DHT22;789;51.612;7.510;2023-08-06T06:41:47;19.90;1.00
1592;DHT22;789;51.612;7.510;2023-08-06T06:44:14;20.30;1.00
1592;DHT22;789;51.612;7.510;2023-08-06T06:46:42;20.70;1.00
1592;DHT22;789;51.612;7.510;2023-08-06T06:49:09;21.20;1.00
1592;DHT22;789;51.612;7.510;2023-08-06T06:51:36;21.50;1.00
1592;DHT22;789;51.612;7.510;2023-08-06T06:54:03;21.90;1.00
1592;DHT22;789;51.612;7.510;2023-08-06T06:56:30;22.10;1.00
1592;DHT22;789;51.612;7.510;2023-08-06T06:58:57;22.30;1.00
1592;DHT22;789;51.612;7.510;2023-08-06T07:01:23;22.40;1.00
1592;DHT22;789;51.612;7.510;2023-08-06T07:03:52;22.40;1.00
1592;DHT22;789;51.612;7.510;2023-08-06T07:06:18;22.40;1.00
1592;DHT22;789;51.612;7.510;2023-08-06T07:08:45;22.50;1.00
1592;DHT22;789;51.612;7.510;2023-08-06T07:11:12;22.60;1.00
1592;DHT22;789;51.612;7.510;2023-08-06T07:13:39;22.70;1.00
1592;DHT22;789;51.612;7.510;2023-08-06T07:16:05;22.80;1.00
1592;DHT22;789;51.612;7.510;2023-08-06T07:18:32;22.80;1.00
1592;DHT22;789;51.612;7.510;2023-08-06T07:21:00;23.00;1.00
1592;DHT22;789;51.612;7.510;2023-08-06T07:23:27;23.10;1.00
1592;DHT22;789;51.612;7.510;2023-08-06T07:25:54;23.20;1.00
1592;DHT22;789;51.612;7.510;2023-08-06T07:28:20;23.50;1.00
1592;DHT22;789;51.612;7.510;2023-08-06T07:30:48;23.80;1.00
1592;DHT22;789;51.612;7.510;2023-08-06T07:33:14;24.10;1.00
1592;DHT22;789;51.612;7.510;2023-08-06T07:35:41;24.40;1.00
1592;DHT22;789;51.612;7.510;2023-08-06T07:38:10;24.70;1.00
1592;DHT22;789;51.612;7.510;2023-08-06T07:40:37;24.70;1.00
1592;DHT22;789;51.612;7.510;2023-08-06T07:43:03;24.60;1.00
1592;DHT22;789;51.612;7.510;2023-08-06T07:45:33;24.30;1.00
1592;DHT22;789;51.612;7.510;2023-08-06T07:48:00;24.10;1.00
1592;DHT22;789;51.612;7.510;2023-08-06T07:50:27;23.90;1.00
1592;DHT22;789;51.612;7.510;2023-08-06T07:52:53;23.80;1.00
1592;DHT22;789;51.612;7.510;2023-08-06T07:55:22;23.60;1.00
1592;DHT22;789;51.612;7.510;2023-08-06T07:57:48;23.50;1.00
1592;DHT22;789;51.612;7.510;2023-08-06T08:00:15;23.40;1.00
1592;DHT22;789;51.612;7.510;2023-08-06T08:02:42;23.20;1.00
1592;DHT22;789;51.612;7.510;2023-08-06T08:05:09;23.10;1.00
1592;DHT22;789;51.612;7.510;2023-08-06T08:07:36;23.10;1.00
1592;DHT22;789;51.612;7.510;2023-08-06T08:10:03;23.10;1.00
1592;DHT22;789;51.612;7.510;2023-08-06T08:12:32;23.60;1.00
1592;DHT22;789;51.612;7.510;2023-08-06T08:14:59;24.50;1.00
1592;DHT22;789;51.612;7.510;2023-08-06T08:17:25;26.20;1.00
1592;DHT22;789;51.612;7.510;2023-08-06T08:19:52;28.00;1.00
1592;DHT22;789;51.612;7.510;2023-08-06T08:22:19;29.10;1.00
1592;DHT22;789;51.612;7.510;2023-08-06T08:24:46;29.40;1.00
1592;DHT22;789;51.612;7.510;2023-08-06T08:27:13;29.50;1.00
1592;DHT22;789;51.612;7.510;2023-08-06T08:29:41;29.40;1.00
1592;DHT22;789;51.612;7.510;2023-08-06T08:32:08;29.60;1.00
1592;DHT22;789;51.612;7.510;2023-08-06T08:34:37;29.90;1.00
1592;DHT22;789;51.612;7.510;2023-08-06T08:37:03;29.90;1.00
1592;DHT22;789;51.612;7.510;2023-08-06T08:39:31;29.50;1.00
1592;DHT22;789;51.612;7.510;2023-08-06T08:41:58;29.00;1.00
1592;DHT22;789;51.612;7.510;2023-08-06T08:44:25;28.70;1.00
1592;DHT22;789;51.612;7.510;2023-08-06T08:46:56;28.10;1.00
1592;DHT22;789;51.612;7.510;2023-08-06T08:49:24;27.50;1.00
1592;DHT22;789;51.612;7.510;2023-08-06T08:51:53;26.90;1.00
1592;DHT22;789;51.612;7.510;2023-08-06T08:54:23;26.40;1.00
1592;DHT22;789;51.612;7.510;2023-08-06T08:56:50;25.90;1.00
1592;DHT22;789;51.612;7.510;2023-08-06T08:59:17;25.40;1.00
1592;DHT22;789;51.612;7.510;2023-08-06T09:01:48;24.90;1.00
1592;DHT22;789;51.612;7.510;2023-08-06T09:04:18;24.60;1.00
1592;DHT22;789;51.612;7.510;2023-08-06T09:06:47;24.20;1.00
1592;DHT22;789;51.612;7.510;2023-08-06T09:09:22;24.10;1.00
1592;DHT22;789;51.612;7.510;2023-08-06T09:11:51;24.20;1.00
1592;DHT22;789;51.612;7.510;2023-08-06T09:14:18;24.20;1.00
1592;DHT22;789;51.612;7.510;2023-08-06T09:16:45;24.30;1.00
1592;DHT22;789;51.612;7.510;2023-08-06T09:19:13;24.40;1.00
1592;DHT22;789;51.612;7.510;2023-08-06T09:21:44;24.60;1.00
1592;DHT22;789;51.612;7.510;2023-08-06T09:24:14;24.70;1.00
1592;DHT22;789;51.612;7.510;2023-08-06T09:26:42;24.90;1.00
1592;DHT22;789;51.612;7.510;2023-08-06T09:29:10;25.00;1.00
1592;DHT22;789;51.612;7.510;2023-08-06T09:31:41;25.10;1.00
1592;DHT22;789;51.612;7.510;2023-08-06T09:34:10;25.10;1.00
1592;DHT22;789;51.612;7.510;2023-08-06T09:36:54;25.10;1.00
1592;DHT22;789;51.612;7.510;2023-08-06T09:39:22;25.10;1.00
1592;DHT22;789;51.612;7.510;2023-08-06T09:41:56;24.90;1.00
1592;DHT22;789;51.612;7.510;2023-08-06T09:44:24;24.90;1.00
1592;DHT22;789;51.612;7.510;2023-08-06T09:46:53;24.70;1.00
1592;DHT22;789;51.612;7.510;2023-08-06T09:49:21;24.60;1.00
1592;DHT22;789;51.612;7.510;2023-08-06T09:51:49;24.60;1.00
1592;DHT22;789;51.612;7.510;2023-08-06T09:54:22;24.50;1.00
1592;DHT22;789;51.612;7.510;2023-08-06T09:56:49;24.50;1.00
1592;DHT22;789;51.612;7.510;2023-08-06T09:59:17;24.80;1.00
1592;DHT22;789;51.612;7.510;2023-08-06T10:01:45;24.70;1.00
1592;DHT22;789;51.612;7.510;2023-08-06T10:04:14;24.90;1.00
1592;DHT22;789;51.612;7.510;2023-08-06T10:06:42;25.00;1.00
1592;DHT22;789;51.612;7.510;2023-08-06T10:09:10;25.00;1.00
1592;DHT22;789;51.612;7.510;2023-08-06T10:11:39;25.00;1.00
1592;DHT22;789;51.612;7.510;2023-08-06T10:14:10;25.10;1.00
1592;DHT22;789;51.612;7.510;2023-08-06T10:16:39;25.10;1.00
1592;DHT22;789;51.612;7.510;2023-08-06T10:19:10;25.40;1.00
1592;DHT22;789;51.612;7.510;2023-08-06T10:21:38;26.20;1.00
1592;DHT22;789;51.612;7.510;2023-08-06T10:24:07;27.40;1.00
1592;DHT22;789;51.612;7.510;2023-08-06T10:26:36;28.40;1.00
1592;DHT22;789;51.612;7.510;2023-08-06T10:29:35;29.10;1.00
1592;DHT22;789;51.612;7.510;2023-08-06T10:32:01;29.80;1.00
1592;DHT22;789;51.612;7.510;2023-08-06T10:34:54;30.40;1.00
1592;DHT22;789;51.612;7.510;2023-08-06T10:37:22;30.60;1.00
1592;DHT22;789;51.612;7.510;2023-08-06T10:39:50;30.20;1.00
1592;DHT22;789;51.612;7.510;2023-08-06T10:42:20;29.90;1.00
1592;DHT22;789;51.612;7.510;2023-08-06T10:45:13;29.70;1.00
1592;DHT22;789;51.612;7.510;2023-08-06T10:47:40;29.00;1.00
1592;DHT22;789;51.612;7.510;2023-08-06T10:50:10;28.40;1.00
1592;DHT22;789;51.612;7.510;2023-08-06T10:52:37;28.00;1.00
1592;DHT22;789;51.612;7.510;2023-08-06T10:55:05;27.70;1.00
1592;DHT22;789;51.612;7.510;2023-08-06T10:57:32;27.40;1.00
1592;DHT22;789;51.612;7.510;2023-08-06T10:59:58;27.00;1.00
1592;DHT22;789;51.612;7.510;2023-08-06T11:02:26;26.50;1.00
1592;DHT22;789;51.612;7.510;2023-08-06T11:04:54;25.90;1.00
1592;DHT22;789;51.612;7.510;2023-08-06T11:07:21;25.50;1.00
1592;DHT22;789;51.612;7.510;2023-08-06T11:09:50;25.10;1.00
1592;DHT22;789;51.612;7.510;2023-08-06T11:12:19;24.60;1.00
1592;DHT22;789;51.612;7.510;2023-08-06T11:14:50;24.10;1.00
1592;DHT22;789;51.612;7.510;2023-08-06T11:17:17;23.80;1.00
1592;DHT22;789;51.612;7.510;2023-08-06T11:19:45;23.50;1.00
1592;DHT22;789;51.612;7.510;2023-08-06T11:22:13;23.30;1.00
1592;DHT22;789;51.612;7.510;2023-08-06T11:24:40;23.10;1.00
1592;DHT22;789;51.612;7.510;2023-08-06T11:27:14;23.00;1.00
1592;DHT22;789;51.612;7.510;2023-08-06T11:29:41;23.00;1.00
1592;DHT22;789;51.612;7.510;2023-08-06T11:32:08;23.00;1.00
1592;DHT22;789;51.612;7.510;2023-08-06T11:34:35;23.00;1.00
1592;DHT22;789;51.612;7.510;2023-08-06T11:37:04;23.00;1.00
1592;DHT22;789;51.612;7.510;2023-08-06T11:39:32;23.10;1.00
1592;DHT22;789;51.612;7.510;2023-08-06T11:41:59;23.20;1.00
1592;DHT22;789;51.612;7.510;2023-08-06T11:44:30;23.20;1.00
1592;DHT22;789;51.612;7.510;2023-08-06T11:46:56;23.30;1.00
1592;DHT22;789;51.612;7.510;2023-08-06T11:49:39;23.30;1.00
1592;DHT22;789;51.612;7.510;2023-08-06T11:52:14;23.40;1.00
1592;DHT22;789;51.612;7.510;2023-08-06T11:54:41;23.60;1.00
1592;DHT22;789;51.612;7.510;2023-08-06T11:57:08;23.80;1.00
1592;DHT22;789;51.612;7.510;2023-08-06T11:59:37;23.80;1.00
1592;DHT22;789;51.612;7.510;2023-08-06T12:02:04;23.90;1.00
1592;DHT22;789;51.612;7.510;2023-08-06T12:04:32;24.00;1.00
1592;DHT22;789;51.612;7.510;2023-08-06T12:07:19;24.20;1.00
1592;DHT22;789;51.612;7.510;2023-08-06T12:09:47;24.20;1.00
1592;DHT22;789;51.612;7.510;2023-08-06T12:12:14;24.30;1.00
1592;DHT22;789;51.612;7.510;2023-08-06T12:14:41;24.50;1.00
1592;DHT22;789;51.612;7.510;2023-08-06T12:17:08;24.60;1.00
1592;DHT22;789;51.612;7.510;2023-08-06T12:19:36;24.80;1.00
1592;DHT22;789;51.612;7.510;2023-08-06T12:22:03;24.70;1.00
1592;DHT22;789;51.612;7.510;2023-08-06T12:24:31;24.90;1.00
1592;DHT22;789;51.612;7.510;2023-08-06T12:26:58;25.20;1.00
1592;DHT22;789;51.612;7.510;2023-08-06T12:29:25;25.60;1.00
1592;DHT22;789;51.612;7.510;2023-08-06T12:31:52;26.00;1.00
1592;DHT22;789;51.612;7.510;2023-08-06T12:34:19;26.30;1.00
1592;DHT22;789;51.612;7.510;2023-08-06T12:36:46;26.40;1.00
1592;DHT22;789;51.612;7.510;2023-08-06T12:39:12;26.50;1.00
1592;DHT22;789;51.612;7.510;2023-08-06T12:41:41;26.50;1.00
1592;DHT22;789;51.612;7.510;2023-08-06T12:44:09;26.50;1.00
1592;DHT22;789;51.612;7.510;2023-08-06T12:46:36;26.40;1.00
1592;DHT22;789;51.612;7.510;2023-08-06T12:49:02;25.90;1.00
1592;DHT22;789;51.612;7.510;2023-08-06T12:51:30;25.40;1.00
1592;DHT22;789;51.612;7.510;2023-08-06T12:53:58;24.80;1.00
1592;DHT22;789;51.612;7.510;2023-08-06T12:56:25;24.20;1.00
1592;DHT22;789;51.612;7.510;2023-08-06T12:58:53;23.50;1.00
1592;DHT22;789;51.612;7.510;2023-08-06T13:01:20;23.00;1.00
1592;DHT22;789;51.612;7.510;2023-08-06T13:03:47;22.70;1.00
1592;DHT22;789;51.612;7.510;2023-08-06T13:06:14;22.50;1.00
1592;DHT22;789;51.612;7.510;2023-08-06T13:08:40;22.30;1.00
1592;DHT22;789;51.612;7.510;2023-08-06T13:11:08;22.00;1.00
1592;DHT22;789;51.612;7.510;2023-08-06T13:13:34;21.90;1.00
1592;DHT22;789;51.612;7.510;2023-08-06T13:16:03;21.40;1.00
1592;DHT22;789;51.612;7.510;2023-08-06T13:18:30;21.10;1.00
1592;DHT22;789;51.612;7.510;2023-08-06T13:20:57;20.70;1.00
1592;DHT22;789;51.612;7.510;2023-08-06T13:23:23;20.40;1.00
1592;DHT22;789;51.612;7.510;2023-08-06T13:25:50;20.20;1.00
1592;DHT22;789;51.612;7.510;2023-08-06T13:28:19;20.10;1.00
1592;DHT22;789;51.612;7.510;2023-08-06T13:30:48;20.10;1.00
1592;DHT22;789;51.612;7.510;2023-08-06T13:33:16;19.80;1.00
1592;DHT22;789;51.612;7.510;2023-08-06T13:35:43;19.60;1.00
1592;DHT22;789;51.612;7.510;2023-08-06T13:38:09;19.50;1.00
1592;DHT22;789;51.612;7.510;2023-08-06T13:40:38;19.30;1.00
1592;DHT22;789;51.612;7.510;2023-08-06T13:43:05;19.10;1.00
1592;DHT22;789;51.612;7.510;2023-08-06T13:45:32;19.00;1.00
1592;DHT22;789;51.612;7.510;2023-08-06T13:48:03;19.20;1.00
1592;DHT22;789;51.612;7.510;2023-08-06T13:50:32;18.70;1.00
1592;DHT22;789;51.612;7.510;2023-08-06T13:52:58;18.80;1.00
1592;DHT22;789;51.612;7.510;2023-08-06T13:55:26;18.70;1.00
1592;DHT22;789;51.612;7.510;2023-08-06T13:57:53;18.60;1.00
1592;DHT22;789;51.612;7.510;2023-08-06T14:00:19;19.00;1.00
1592;DHT22;789;51.612;7.510;2023-08-06T14:02:46;18.80;1.00
1592;DHT22;789;51.612;7.510;2023-08-06T14:05:13;19.10;1.00
1592;DHT22;789;51.612;7.510;2023-08-06T14:07:41;18.80;1.00
1592;DHT22;789;51.612;7.510;2023-08-06T14:10:08;18.80;1.00
1592;DHT22;789;51.612;7.510;2023-08-06T14:12:35;18.90;1.00
1592;DHT22;789;51.612;7.510;2023-08-06T14:15:02;19.00;1.00
1592;DHT22;789;51.612;7.510;2023-08-06T14:17:29;18.70;1.00
1592;DHT22;789;51.612;7.510;2023-08-06T14:19:56;18.50;1.00
1592;DHT22;789;51.612;7.510;2023-08-06T14:22:23;18.50;1.00
1592;DHT22;789;51.612;7.510;2023-08-06T14:24:51;18.40;1.00
1592;DHT22;789;51.612;7.510;2023-08-06T14:27:18;18.70;1.00
1592;DHT22;789;51.612;7.510;2023-08-06T14:29:45;18.40;1.00
1592;DHT22;789;51.612;7.510;2023-08-06T14:32:12;18.60;1.00
1592;DHT22;789;51.612;7.510;2023-08-06T14:34:40;18.40;1.00
1592;DHT22;789;51.612;7.510;2023-08-06T14:37:07;18.40;1.00
1592;DHT22;789;51.612;7.510;2023-08-06T14:39:35;18.50;1.00
1592;DHT22;789;51.612;7.510;2023-08-06T14:42:04;18.80;1.00
1592;DHT22;789;51.612;7.510;2023-08-06T14:44:31;18.30;1.00
1592;DHT22;789;51.612;7.510;2023-08-06T14:46:57;18.30;1.00
1592;DHT22;789;51.612;7.510;2023-08-06T14:49:24;18.30;1.00
1592;DHT22;789;51.612;7.510;2023-08-06T14:51:51;18.30;1.00
1592;DHT22;789;51.612;7.510;2023-08-06T14:54:18;18.30;1.00
1592;DHT22;789;51.612;7.510;2023-08-06T14:56:44;18.30;1.00
1592;DHT22;789;51.612;7.510;2023-08-06T14:59:13;18.50;1.00
1592;DHT22;789;51.612;7.510;2023-08-06T15:01:40;18.50;1.00
1592;DHT22;789;51.612;7.510;2023-08-06T15:04:07;18.50;1.00
1592;DHT22;789;51.612;7.510;2023-08-06T15:06:34;18.50;1.00
1592;DHT22;789;51.612;7.510;2023-08-06T15:09:01;18.60;1.00
1592;DHT22;789;51.612;7.510;2023-08-06T15:11:28;18.90;1.00
1592;DHT22;789;51.612;7.510;2023-08-06T15:13:55;18.80;1.00
1592;DHT22;789;51.612;7.510;2023-08-06T15:16:23;19.00;1.00
1592;DHT22;789;51.612;7.510;2023-08-06T15:18:53;19.10;1.00
1592;DHT22;789;51.612;7.510;2023-08-06T15:21:19;19.30;1.00
1592;DHT22;789;51.612;7.510;2023-08-06T15:23:46;19.40;1.00
1592;DHT22;789;51.612;7.510;2023-08-06T15:26:13;19.50;1.00
1592;DHT22;789;51.612;7.510;2023-08-06T15:28:40;19.50;1.00
1592;DHT22;789;51.612;7.510;2023-08-06T15:31:07;19.60;1.00
1592;DHT22;789;51.612;7.510;2023-08-06T15:33:35;19.50;1.00
1592;DHT22;789;51.612;7.510;2023-08-06T15:36:02;19.50;1.00
1592;DHT22;789;51.612;7.510;2023-08-06T15:38:29;19.50;1.00
1592;DHT22;789;51.612;7.510;2023-08-06T15:40:56;19.40;1.00
1592;DHT22;789;51.612;7.510;2023-08-06T15:43:23;19.40;1.00
1592;DHT22;789;51.612;7.510;2023-08-06T15:45:51;19.30;1.00
1592;DHT22;789;51.612;7.510;2023-08-06T15:48:18;19.30;1.00
1592;DHT22;789;51.612;7.510;2023-08-06T15:50:46;19.30;1.00
1592;DHT22;789;51.612;7.510;2023-08-06T15:53:16;19.20;1.00
1592;DHT22;789;51.612;7.510;2023-08-06T15:55:43;19.10;1.00
1592;DHT22;789;51.612;7.510;2023-08-06T15:58:12;19.00;1.00
1592;DHT22;789;51.612;7.510;2023-08-06T16:00:39;19.30;1.00
1592;DHT22;789;51.612;7.510;2023-08-06T16:03:06;19.00;1.00
1592;DHT22;789;51.612;7.510;2023-08-06T16:05:34;19.00;1.00
1592;DHT22;789;51.612;7.510;2023-08-06T16:08:02;18.90;1.00
1592;DHT22;789;51.612;7.510;2023-08-06T16:10:29;18.80;1.00
1592;DHT22;789;51.612;7.510;2023-08-06T16:12:56;18.80;1.00
1592;DHT22;789;51.612;7.510;2023-08-06T16:15:23;19.00;1.00
1592;DHT22;789;51.612;7.510;2023-08-06T16:17:50;18.60;1.00
1592;DHT22;789;51.612;7.510;2023-08-06T16:20:17;18.60;1.00
1592;DHT22;789;51.612;7.510;2023-08-06T16:22:44;18.60;1.00
1592;DHT22;789;51.612;7.510;2023-08-06T16:25:12;18.50;1.00
1592;DHT22;789;51.612;7.510;2023-08-06T16:27:40;18.40;1.00
1592;DHT22;789;51.612;7.510;2023-08-06T16:30:07;18.30;1.00
1592;DHT22;789;51.612;7.510;2023-08-06T16:32:36;18.30;1.00
1592;DHT22;789;51.612;7.510;2023-08-06T16:35:04;18.30;1.00
1592;DHT22;789;51.612;7.510;2023-08-06T16:37:32;18.30;1.00
1592;DHT22;789;51.612;7.510;2023-08-06T16:39:59;18.30;1.00